sensor_id;sensor_type;location;lat;lon;timestamp;temperature;humidity
16838;DHT22;19510;54.486;9.046;2023-04-03T03:20:23;2.30;99.90
16838;DHT22;19510;54.486;9.046;2023-04-03T03:22:49;2.30;99.90
16838;DHT22;19510;54.486;9.046;2023-04-03T03:25:44;2.30;99.90
16838;DHT22;19510;54.486;9.046;2023-04-03T03:28:09;2.20;99.90
16838;DHT22;19510;54.486;9.046;2023-04-03T03:30:38;2.20;99.90
16838;DHT22;19510;54.486;9.046;2023-04-03T03:33:04;2.20;99.90
16838;DHT22;19510;54.486;9.046;2023-04-03T03:35:30;2.10;99.90
16838;DHT22;19510;54.486;9.046;2023-04-03T03:38:01;2.10;99.90
16838;DHT22;19510;54.486;9.046;2023-04-03T03:40:35;2.10;99.90
16838;DHT22;19510;54.486;9.046;2023-04-03T03:43:03;2.20;99.90
16838;DHT22;19510;54.486;9.046;2023-04-03T03:59:21;1.90;99.90
16838;DHT22;19510;54.486;9.046;2023-04-03T04:01:54;1.90;99.90
16838;DHT22;19510;54.486;9.046;2023-04-03T04:04:20;1.80;99.90
16838;DHT22;19510;54.486;9.046;2023-04-03T04:06:58;1.80;99.90
16838;DHT22;19510;54.486;9.046;2023-04-03T04:09:26;1.90;99.90
16838;DHT22;19510;54.486;9.046;2023-04-03T04:11:55;1.80;99.90
16838;DHT22;19510;54.486;9.046;2023-04-03T04:14:20;1.80;99.90
16838;DHT22;19510;54.486;9.046;2023-04-03T04:16:47;1.70;99.90
16838;DHT22;19510;54.486;9.046;2023-04-03T04:19:13;1.70;99.90
16838;DHT22;19510;54.486;9.046;2023-04-03T04:21:39;1.60;99.90
16838;DHT22;19510;54.486;9.046;2023-04-03T04:24:08;1.60;99.90
16838;DHT22;19510;54.486;9.046;2023-04-03T04:26:36;1.60;99.90
16838;DHT22;19510;54.486;9.046;2023-04-03T04:29:01;1.60;99.90
16838;DHT22;19510;54.486;9.046;2023-04-03T04:31:49;1.70;99.90
16838;DHT22;19510;54.486;9.046;2023-04-03T04:34:15;1.60;99.90
16838;DHT22;19510;54.486;9.046;2023-04-03T04:36:41;1.60;99.90
16838;DHT22;19510;54.486;9.046;2023-04-03T04:39:07;1.50;99.90
16838;DHT22;19510;54.486;9.046;2023-04-03T04:41:42;1.50;99.90
16838;DHT22;19510;54.486;9.046;2023-04-03T04:44:07;1.50;99.90
16838;DHT22;19510;54.486;9.046;2023-04-03T04:46:33;1.50;99.90
16838;DHT22;19510;54.486;9.046;2023-04-03T04:48:59;1.50;99.90
16838;DHT22;19510;54.486;9.046;2023-04-03T04:51:25;1.40;99.90
16838;DHT22;19510;54.486;9.046;2023-04-03T04:53:51;1.50;99.90
16838;DHT22;19510;54.486;9.046;2023-04-03T04:56:16;1.50;99.90
16838;DHT22;19510;54.486;9.046;2023-04-03T04:58:45;1.50;99.90
16838;DHT22;19510;54.486;9.046;2023-04-03T05:01:11;1.50;99.90
16838;DHT22;19510;54.486;9.046;2023-04-03T05:03:37;1.50;99.90
16838;DHT22;19510;54.486;9.046;2023-04-03T05:06:03;1.50;99.90
16838;DHT22;19510;54.486;9.046;2023-04-03T05:08:29;1.40;99.90
16838;DHT22;19510;54.486;9.046;2023-04-03T05:10:54;1.50;99.90
16838;DHT22;19510;54.486;9.046;2023-04-03T05:13:20;1.50;99.90
16838;DHT22;19510;54.486;9.046;2023-04-03T05:15:47;1.50;99.90
16838;DHT22;19510;54.486;9.046;2023-04-03T05:18:18;1.40;99.90
16838;DHT22;19510;54.486;9.046;2023-04-03T05:20:51;1.40;99.90
16838;DHT22;19510;54.486;9.046;2023-04-03T05:23:17;1.40;99.90
16838;DHT22;19510;54.486;9.046;2023-04-03T05:25:43;1.40;99.90
16838;DHT22;19510;54.486;9.046;2023-04-03T05:28:11;1.40;99.90
16838;DHT22;19510;54.486;9.046;2023-04-03T05:30:36;1.30;99.90
16838;DHT22;19510;54.486;9.046;2023-04-03T05:33:02;1.40;99.90
16838;DHT22;19510;54.486;9.046;2023-04-03T05:35:28;1.50;99.90
16838;DHT22;19510;54.486;9.046;2023-04-03T05:37:54;1.50;99.90
16838;DHT22;19510;54.486;9.046;2023-04-03T05:40:20;1.50;99.90
16838;DHT22;19510;54.486;9.046;2023-04-03T05:42:45;1.50;99.90
16838;DHT22;19510;54.486;9.046;2023-04-03T05:45:11;1.50;99.90
16838;DHT22;19510;54.486;9.046;2023-04-03T05:47:37;1.50;99.90
16838;DHT22;19510;54.486;9.046;2023-04-03T05:50:05;1.50;99.90
16838;DHT22;19510;54.486;9.046;2023-04-03T05:52:36;1.50;99.90
16838;DHT22;19510;54.486;9.046;2023-04-03T05:55:05;1.60;99.90
16838;DHT22;19510;54.486;9.046;2023-04-03T05:57:34;1.60;99.90
16838;DHT22;19510;54.486;9.046;2023-04-03T06:00:00;1.60;99.90
16838;DHT22;19510;54.486;9.046;2023-04-03T06:02:25;1.70;99.90
16838;DHT22;19510;54.486;9.046;2023-04-03T06:04:52;1.80;99.90
16838;DHT22;19510;54.486;9.046;2023-04-03T06:07:22;1.90;99.90
16838;DHT22;19510;54.486;9.046;2023-04-03T06:09:50;1.90;99.90
16838;DHT22;19510;54.486;9.046;2023-04-03T06:12:17;1.90;99.90
16838;DHT22;19510;54.486;9.046;2023-04-03T06:14:42;1.90;99.90
16838;DHT22;19510;54.486;9.046;2023-04-03T06:17:08;1.90;99.90
16838;DHT22;19510;54.486;9.046;2023-04-03T06:19:37;2.10;99.90
16838;DHT22;19510;54.486;9.046;2023-04-03T06:22:03;2.10;99.90
16838;DHT22;19510;54.486;9.046;2023-04-03T06:24:31;2.20;99.90
16838;DHT22;19510;54.486;9.046;2023-04-03T06:26:59;2.20;99.90
16838;DHT22;19510;54.486;9.046;2023-04-03T06:29:27;2.30;99.90
16838;DHT22;19510;54.486;9.046;2023-04-03T06:31:53;2.30;99.90
16838;DHT22;19510;54.486;9.046;2023-04-03T06:34:19;2.40;99.90
16838;DHT22;19510;54.486;9.046;2023-04-03T06:36:46;2.40;99.90
16838;DHT22;19510;54.486;9.046;2023-04-03T06:39:15;2.50;99.90
16838;DHT22;19510;54.486;9.046;2023-04-03T06:41:41;2.50;99.90
16838;DHT22;19510;54.486;9.046;2023-04-03T06:44:07;2.50;99.90
16838;DHT22;19510;54.486;9.046;2023-04-03T06:46:36;2.60;99.90
16838;DHT22;19510;54.486;9.046;2023-04-03T06:49:02;2.60;99.90
16838;DHT22;19510;54.486;9.046;2023-04-03T06:51:29;2.50;99.90
16838;DHT22;19510;54.486;9.046;2023-04-03T06:53:57;2.70;99.90
16838;DHT22;19510;54.486;9.046;2023-04-03T06:56:24;2.80;99.90
16838;DHT22;19510;54.486;9.046;2023-04-03T06:58:54;2.80;99.90
16838;DHT22;19510;54.486;9.046;2023-04-03T07:01:23;2.90;99.90
16838;DHT22;19510;54.486;9.046;2023-04-03T07:03:48;3.00;99.90
16838;DHT22;19510;54.486;9.046;2023-04-03T07:06:16;3.00;99.90
16838;DHT22;19510;54.486;9.046;2023-04-03T07:08:42;3.10;99.90
16838;DHT22;19510;54.486;9.046;2023-04-03T07:11:09;3.20;99.90
16838;DHT22;19510;54.486;9.046;2023-04-03T07:13:45;3.30;99.90
16838;DHT22;19510;54.486;9.046;2023-04-03T07:16:11;3.40;99.90
16838;DHT22;19510;54.486;9.046;2023-04-03T07:18:37;3.50;99.90
16838;DHT22;19510;54.486;9.046;2023-04-03T07:21:04;3.50;99.90
16838;DHT22;19510;54.486;9.046;2023-04-03T07:23:30;3.60;99.90
16838;DHT22;19510;54.486;9.046;2023-04-03T07:26:01;3.70;99.90
16838;DHT22;19510;54.486;9.046;2023-04-03T07:28:27;3.80;99.90
16838;DHT22;19510;54.486;9.046;2023-04-03T07:30:59;3.90;99.90
16838;DHT22;19510;54.486;9.046;2023-04-03T07:33:25;4.00;99.90
16838;DHT22;19510;54.486;9.046;2023-04-03T07:35:50;4.10;99.90
16838;DHT22;19510;54.486;9.046;2023-04-03T07:38:16;4.20;99.90
16838;DHT22;19510;54.486;9.046;2023-04-03T07:40:47;4.30;99.90
16838;DHT22;19510;54.486;9.046;2023-04-03T07:43:16;4.40;99.90
16838;DHT22;19510;54.486;9.046;2023-04-03T07:45:42;4.40;99.90
16838;DHT22;19510;54.486;9.046;2023-04-03T07:48:09;4.50;99.90
16838;DHT22;19510;54.486;9.046;2023-04-03T07:50:36;4.60;99.90
16838;DHT22;19510;54.486;9.046;2023-04-03T07:53:02;4.70;99.90
16838;DHT22;19510;54.486;9.046;2023-04-03T07:55:28;4.80;99.90
16838;DHT22;19510;54.486;9.046;2023-04-03T07:57:54;5.00;99.90
16838;DHT22;19510;54.486;9.046;2023-04-03T08:00:21;4.90;99.90
16838;DHT22;19510;54.486;9.046;2023-04-03T08:02:46;4.90;99.90
16838;DHT22;19510;54.486;9.046;2023-04-03T08:05:20;5.00;99.90
16838;DHT22;19510;54.486;9.046;2023-04-03T08:07:52;5.00;99.90
16838;DHT22;19510;54.486;9.046;2023-04-03T08:10:18;5.00;99.90
16838;DHT22;19510;54.486;9.046;2023-04-03T08:12:46;5.10;99.90
16838;DHT22;19510;54.486;9.046;2023-04-03T08:15:12;5.10;99.90
16838;DHT22;19510;54.486;9.046;2023-04-03T08:17:37;5.20;99.90
16838;DHT22;19510;54.486;9.046;2023-04-03T08:20:05;5.40;99.90
16838;DHT22;19510;54.486;9.046;2023-04-03T08:22:32;5.40;99.90
16838;DHT22;19510;54.486;9.046;2023-04-03T08:24:58;5.50;99.90
16838;DHT22;19510;54.486;9.046;2023-04-03T08:27:25;5.50;99.90
16838;DHT22;19510;54.486;9.046;2023-04-03T08:29:52;5.50;99.90
16838;DHT22;19510;54.486;9.046;2023-04-03T08:32:17;5.50;99.90
16838;DHT22;19510;54.486;9.046;2023-04-03T08:34:43;5.50;99.90
16838;DHT22;19510;54.486;9.046;2023-04-03T08:37:09;5.60;99.90
16838;DHT22;19510;54.486;9.046;2023-04-03T08:39:35;5.60;99.90
16838;DHT22;19510;54.486;9.046;2023-04-03T08:42:07;5.70;99.90
16838;DHT22;19510;54.486;9.046;2023-04-03T08:44:59;5.80;99.90
16838;DHT22;19510;54.486;9.046;2023-04-03T08:47:50;5.90;99.90
16838;DHT22;19510;54.486;9.046;2023-04-03T08:50:28;6.00;99.90
16838;DHT22;19510;54.486;9.046;2023-04-03T08:52:59;6.10;99.90
16838;DHT22;19510;54.486;9.046;2023-04-03T08:55:27;6.10;99.90
16838;DHT22;19510;54.486;9.046;2023-04-03T08:58:05;6.20;99.90
16838;DHT22;19510;54.486;9.046;2023-04-03T09:00:43;6.30;99.90
16838;DHT22;19510;54.486;9.046;2023-04-03T09:03:16;6.40;99.90
16838;DHT22;19510;54.486;9.046;2023-04-03T09:08:53;6.30;99.90
16838;DHT22;19510;54.486;9.046;2023-04-03T09:17:00;6.70;99.90
16838;DHT22;19510;54.486;9.046;2023-04-03T09:22:18;6.90;99.90
16838;DHT22;19510;54.486;9.046;2023-04-03T09:27:44;7.00;99.90
16838;DHT22;19510;54.486;9.046;2023-04-03T09:30:42;7.10;99.90
16838;DHT22;19510;54.486;9.046;2023-04-03T09:33:08;7.20;99.90
16838;DHT22;19510;54.486;9.046;2023-04-03T09:35:41;7.20;99.90
16838;DHT22;19510;54.486;9.046;2023-04-03T09:40:39;7.40;99.90
16838;DHT22;19510;54.486;9.046;2023-04-03T09:45:45;7.50;99.90
16838;DHT22;19510;54.486;9.046;2023-04-03T09:51:08;7.50;99.90
16838;DHT22;19510;54.486;9.046;2023-04-03T09:53:43;7.60;99.90
16838;DHT22;19510;54.486;9.046;2023-04-03T09:56:19;7.70;99.90
16838;DHT22;19510;54.486;9.046;2023-04-03T09:59:13;7.80;99.90
16838;DHT22;19510;54.486;9.046;2023-04-03T10:01:43;7.80;99.90
16838;DHT22;19510;54.486;9.046;2023-04-03T10:06:48;7.90;99.90
16838;DHT22;19510;54.486;9.046;2023-04-03T10:12:15;8.10;99.90
16838;DHT22;19510;54.486;9.046;2023-04-03T10:19:57;8.40;99.90
16838;DHT22;19510;54.486;9.046;2023-04-03T10:25:10;8.60;99.90
16838;DHT22;19510;54.486;9.046;2023-04-03T10:31:12;8.80;99.90
16838;DHT22;19510;54.486;9.046;2023-04-03T10:43:44;9.30;99.90
16838;DHT22;19510;54.486;9.046;2023-04-03T10:55:58;9.60;99.90
16838;DHT22;19510;54.486;9.046;2023-04-03T10:57:55;9.70;99.90
16838;DHT22;19510;54.486;9.046;2023-04-03T11:03:00;9.80;99.90
16838;DHT22;19510;54.486;9.046;2023-04-03T11:08:02;9.70;99.90
16838;DHT22;19510;54.486;9.046;2023-04-03T11:10:42;9.60;99.90
16838;DHT22;19510;54.486;9.046;2023-04-03T11:13:17;9.50;99.90
16838;DHT22;19510;54.486;9.046;2023-04-03T11:19:18;9.40;99.90
16838;DHT22;19510;54.486;9.046;2023-04-03T11:22:08;9.50;99.90
16838;DHT22;19510;54.486;9.046;2023-04-03T11:24:39;9.90;99.90
16838;DHT22;19510;54.486;9.046;2023-04-03T11:27:20;10.30;99.90
16838;DHT22;19510;54.486;9.046;2023-04-03T11:29:50;10.40;99.90
16838;DHT22;19510;54.486;9.046;2023-04-03T11:34:56;10.80;99.90
16838;DHT22;19510;54.486;9.046;2023-04-03T11:37:47;10.90;99.90
16838;DHT22;19510;54.486;9.046;2023-04-03T11:43:07;10.90;99.90
16838;DHT22;19510;54.486;9.046;2023-04-03T11:46:03;10.50;99.90
16838;DHT22;19510;54.486;9.046;2023-04-03T11:49:08;10.30;99.90
16838;DHT22;19510;54.486;9.046;2023-04-03T11:51:55;10.10;99.90
16838;DHT22;19510;54.486;9.046;2023-04-03T11:54:45;10.00;99.90
16838;DHT22;19510;54.486;9.046;2023-04-03T12:08:27;11.10;99.90
16838;DHT22;19510;54.486;9.046;2023-04-03T12:11:15;11.50;99.90
16838;DHT22;19510;54.486;9.046;2023-04-03T12:29:33;12.60;99.90
16838;DHT22;19510;54.486;9.046;2023-04-03T12:45:29;13.10;99.90
16838;DHT22;19510;54.486;9.046;2023-04-03T12:48:06;13.00;99.90
16838;DHT22;19510;54.486;9.046;2023-04-03T12:51:07;12.70;99.90
16838;DHT22;19510;54.486;9.046;2023-04-03T12:53:37;12.40;99.90
16838;DHT22;19510;54.486;9.046;2023-04-03T12:58:53;11.80;99.90
16838;DHT22;19510;54.486;9.046;2023-04-03T13:01:30;11.50;99.90
16838;DHT22;19510;54.486;9.046;2023-04-03T13:03:58;11.50;99.90
16838;DHT22;19510;54.486;9.046;2023-04-03T13:06:37;11.60;99.90
16838;DHT22;19510;54.486;9.046;2023-04-03T13:09:14;11.40;99.90
16838;DHT22;19510;54.486;9.046;2023-04-03T13:11:44;11.30;99.90
16838;DHT22;19510;54.486;9.046;2023-04-03T13:14:19;11.40;99.90
16838;DHT22;19510;54.486;9.046;2023-04-03T13:17:15;11.40;99.90
16838;DHT22;19510;54.486;9.046;2023-04-03T13:19:50;11.30;99.90
16838;DHT22;19510;54.486;9.046;2023-04-03T13:22:28;11.50;99.90
16838;DHT22;19510;54.486;9.046;2023-04-03T13:24:58;11.90;99.90
16838;DHT22;19510;54.486;9.046;2023-04-03T13:27:25;12.10;99.90
16838;DHT22;19510;54.486;9.046;2023-04-03T13:29:57;11.90;99.90
16838;DHT22;19510;54.486;9.046;2023-04-03T13:32:26;11.80;99.90
16838;DHT22;19510;54.486;9.046;2023-04-03T13:34:52;11.60;99.90
16838;DHT22;19510;54.486;9.046;2023-04-03T13:37:28;11.40;99.90
16838;DHT22;19510;54.486;9.046;2023-04-03T13:40:10;11.30;99.90
16838;DHT22;19510;54.486;9.046;2023-04-03T13:42:39;11.30;99.90
16838;DHT22;19510;54.486;9.046;2023-04-03T13:47:47;11.40;99.90
16838;DHT22;19510;54.486;9.046;2023-04-03T13:50:22;11.70;99.90
16838;DHT22;19510;54.486;9.046;2023-04-03T13:53:15;12.10;99.90
16838;DHT22;19510;54.486;9.046;2023-04-03T13:58:26;12.40;99.90
16838;DHT22;19510;54.486;9.046;2023-04-03T14:01:19;12.40;99.90
16838;DHT22;19510;54.486;9.046;2023-04-03T14:04:10;12.50;99.90
16838;DHT22;19510;54.486;9.046;2023-04-03T14:06:35;12.60;99.90
16838;DHT22;19510;54.486;9.046;2023-04-03T14:09:02;12.20;99.90
16838;DHT22;19510;54.486;9.046;2023-04-03T14:11:30;11.80;99.90
16838;DHT22;19510;54.486;9.046;2023-04-03T14:14:01;11.90;99.90
16838;DHT22;19510;54.486;9.046;2023-04-03T14:16:32;12.20;99.90
16838;DHT22;19510;54.486;9.046;2023-04-03T14:18:59;12.20;99.90
16838;DHT22;19510;54.486;9.046;2023-04-03T14:21:25;12.10;99.90
16838;DHT22;19510;54.486;9.046;2023-04-03T14:23:53;12.00;99.90
16838;DHT22;19510;54.486;9.046;2023-04-03T14:26:24;12.00;99.90
16838;DHT22;19510;54.486;9.046;2023-04-03T14:32:01;12.20;99.90
16838;DHT22;19510;54.486;9.046;2023-04-03T14:34:27;12.10;99.90
16838;DHT22;19510;54.486;9.046;2023-04-03T14:36:55;12.00;99.90
16838;DHT22;19510;54.486;9.046;2023-04-03T14:39:21;11.90;99.90
16838;DHT22;19510;54.486;9.046;2023-04-03T14:41:47;11.70;99.90
16838;DHT22;19510;54.486;9.046;2023-04-03T14:44:14;11.60;99.90
16838;DHT22;19510;54.486;9.046;2023-04-03T14:46:43;11.40;99.90
16838;DHT22;19510;54.486;9.046;2023-04-03T14:49:28;11.30;99.90
16838;DHT22;19510;54.486;9.046;2023-04-03T14:51:55;11.20;99.90
16838;DHT22;19510;54.486;9.046;2023-04-03T14:54:22;11.10;99.90
16838;DHT22;19510;54.486;9.046;2023-04-03T14:57:02;11.10;99.90
16838;DHT22;19510;54.486;9.046;2023-04-03T14:59:29;11.10;99.90
16838;DHT22;19510;54.486;9.046;2023-04-03T15:01:56;10.90;99.90
16838;DHT22;19510;54.486;9.046;2023-04-03T15:04:21;10.80;99.90
16838;DHT22;19510;54.486;9.046;2023-04-03T15:06:48;10.80;99.90
16838;DHT22;19510;54.486;9.046;2023-04-03T15:09:37;10.70;99.90
16838;DHT22;19510;54.486;9.046;2023-04-03T15:12:03;10.80;99.90
16838;DHT22;19510;54.486;9.046;2023-04-03T15:14:32;10.90;99.90
16838;DHT22;19510;54.486;9.046;2023-04-03T15:17:00;11.20;99.90
16838;DHT22;19510;54.486;9.046;2023-04-03T15:19:26;11.40;99.90
16838;DHT22;19510;54.486;9.046;2023-04-03T15:21:52;11.60;99.90
16838;DHT22;19510;54.486;9.046;2023-04-03T15:24:17;11.90;99.90
16838;DHT22;19510;54.486;9.046;2023-04-03T15:26:43;11.90;99.90
16838;DHT22;19510;54.486;9.046;2023-04-03T15:29:09;12.00;99.90
16838;DHT22;19510;54.486;9.046;2023-04-03T15:31:35;12.00;99.90
16838;DHT22;19510;54.486;9.046;2023-04-03T15:34:01;11.70;99.90
16838;DHT22;19510;54.486;9.046;2023-04-03T15:36:27;11.80;99.90
16838;DHT22;19510;54.486;9.046;2023-04-03T15:38:55;12.20;99.90
16838;DHT22;19510;54.486;9.046;2023-04-03T15:41:21;12.70;99.90
16838;DHT22;19510;54.486;9.046;2023-04-03T15:43:47;13.30;99.90
16838;DHT22;19510;54.486;9.046;2023-04-03T15:46:13;13.90;99.90
16838;DHT22;19510;54.486;9.046;2023-04-03T15:48:39;14.20;99.90
16838;DHT22;19510;54.486;9.046;2023-04-03T15:51:06;14.30;99.90
16838;DHT22;19510;54.486;9.046;2023-04-03T15:53:32;14.20;99.90
16838;DHT22;19510;54.486;9.046;2023-04-03T15:55:57;13.80;99.90
16838;DHT22;19510;54.486;9.046;2023-04-03T15:58:23;13.00;99.90
16838;DHT22;19510;54.486;9.046;2023-04-03T16:00:49;12.30;99.90
16838;DHT22;19510;54.486;9.046;2023-04-03T16:03:17;11.90;99.90
16838;DHT22;19510;54.486;9.046;2023-04-03T16:05:43;11.60;99.90
16838;DHT22;19510;54.486;9.046;2023-04-03T16:08:27;11.50;99.90
16838;DHT22;19510;54.486;9.046;2023-04-03T16:10:53;11.50;99.90
16838;DHT22;19510;54.486;9.046;2023-04-03T16:13:29;11.90;99.90
16838;DHT22;19510;54.486;9.046;2023-04-03T16:15:55;12.30;99.90
16838;DHT22;19510;54.486;9.046;2023-04-03T16:18:21;12.20;99.90
16838;DHT22;19510;54.486;9.046;2023-04-03T16:20:47;12.50;99.90
16838;DHT22;19510;54.486;9.046;2023-04-03T16:23:15;12.80;99.90
16838;DHT22;19510;54.486;9.046;2023-04-03T16:25:41;12.70;99.90
16838;DHT22;19510;54.486;9.046;2023-04-03T16:28:12;12.70;99.90
16838;DHT22;19510;54.486;9.046;2023-04-03T16:30:51;13.00;99.90
16838;DHT22;19510;54.486;9.046;2023-04-03T16:33:18;13.00;99.90
16838;DHT22;19510;54.486;9.046;2023-04-03T16:35:47;13.10;99.90
16838;DHT22;19510;54.486;9.046;2023-04-03T16:38:16;13.20;99.90
16838;DHT22;19510;54.486;9.046;2023-04-03T16:40:44;12.90;99.90
16838;DHT22;19510;54.486;9.046;2023-04-03T16:43:10;12.70;99.90
16838;DHT22;19510;54.486;9.046;2023-04-03T16:45:39;12.20;99.90
16838;DHT22;19510;54.486;9.046;2023-04-03T16:48:08;11.50;99.90
16838;DHT22;19510;54.486;9.046;2023-04-03T16:50:34;11.10;99.90
16838;DHT22;19510;54.486;9.046;2023-04-03T16:53:00;10.60;99.90
16838;DHT22;19510;54.486;9.046;2023-04-03T16:55:28;10.40;99.90
16838;DHT22;19510;54.486;9.046;2023-04-03T16:57:54;10.20;99.90
16838;DHT22;19510;54.486;9.046;2023-04-03T17:00:21;10.00;99.90
16838;DHT22;19510;54.486;9.046;2023-04-03T17:02:50;9.80;99.90
16838;DHT22;19510;54.486;9.046;2023-04-03T17:05:15;9.70;99.90
16838;DHT22;19510;54.486;9.046;2023-04-03T17:07:41;9.60;99.90
16838;DHT22;19510;54.486;9.046;2023-04-03T17:10:11;9.50;99.90
16838;DHT22;19510;54.486;9.046;2023-04-03T17:12:37;9.20;99.90
16838;DHT22;19510;54.486;9.046;2023-04-03T17:15:03;9.20;99.90
16838;DHT22;19510;54.486;9.046;2023-04-03T17:17:29;9.10;99.90
16838;DHT22;19510;54.486;9.046;2023-04-03T17:20:08;9.00;99.90
16838;DHT22;19510;54.486;9.046;2023-04-03T17:22:42;8.90;99.90
16838;DHT22;19510;54.486;9.046;2023-04-03T17:25:12;8.90;99.90
16838;DHT22;19510;54.486;9.046;2023-04-03T17:27:40;8.80;99.90
16838;DHT22;19510;54.486;9.046;2023-04-03T17:30:06;8.70;99.90
16838;DHT22;19510;54.486;9.046;2023-04-03T17:32:32;8.70;99.90
16838;DHT22;19510;54.486;9.046;2023-04-03T17:34:58;8.60;99.90
16838;DHT22;19510;54.486;9.046;2023-04-03T17:37:24;8.50;99.90
16838;DHT22;19510;54.486;9.046;2023-04-03T17:39:50;8.50;99.90
16838;DHT22;19510;54.486;9.046;2023-04-03T17:42:38;8.40;99.90
16838;DHT22;19510;54.486;9.046;2023-04-03T17:45:08;8.30;99.90
16838;DHT22;19510;54.486;9.046;2023-04-03T17:47:37;8.40;99.90
16838;DHT22;19510;54.486;9.046;2023-04-03T17:50:10;8.30;99.90
16838;DHT22;19510;54.486;9.046;2023-04-03T17:52:38;8.20;99.90
16838;DHT22;19510;54.486;9.046;2023-04-03T17:55:08;8.00;99.90
16838;DHT22;19510;54.486;9.046;2023-04-03T17:57:37;8.10;99.90
16838;DHT22;19510;54.486;9.046;2023-04-03T18:00:04;8.00;99.90
16838;DHT22;19510;54.486;9.046;2023-04-03T18:02:32;8.00;99.90
16838;DHT22;19510;54.486;9.046;2023-04-03T18:04:58;7.90;99.90
16838;DHT22;19510;54.486;9.046;2023-04-03T18:07:24;7.90;99.90
16838;DHT22;19510;54.486;9.046;2023-04-03T18:09:51;7.80;99.90
16838;DHT22;19510;54.486;9.046;2023-04-03T18:29:36;7.60;99.90
16838;DHT22;19510;54.486;9.046;2023-04-03T18:32:07;7.50;99.90
16838;DHT22;19510;54.486;9.046;2023-04-03T18:38:33;7.40;99.90
16838;DHT22;19510;54.486;9.046;2023-04-03T18:41:09;7.30;99.90
16838;DHT22;19510;54.486;9.046;2023-04-03T18:43:36;7.30;99.90
16838;DHT22;19510;54.486;9.046;2023-04-03T18:49:45;7.10;99.90
16838;DHT22;19510;54.486;9.046;2023-04-03T18:52:30;7.10;99.90
16838;DHT22;19510;54.486;9.046;2023-04-03T18:58:59;7.10;99.90
16838;DHT22;19510;54.486;9.046;2023-04-03T19:37:40;6.40;99.90
16838;DHT22;19510;54.486;9.046;2023-04-03T19:40:37;6.30;99.90
16838;DHT22;19510;54.486;9.046;2023-04-03T19:43:27;6.20;99.90
16838;DHT22;19510;54.486;9.046;2023-04-03T19:45:52;6.20;99.90
16838;DHT22;19510;54.486;9.046;2023-04-03T19:48:18;6.10;99.90
16838;DHT22;19510;54.486;9.046;2023-04-03T19:50:44;6.10;99.90
16838;DHT22;19510;54.486;9.046;2023-04-03T19:53:12;6.10;99.90
16838;DHT22;19510;54.486;9.046;2023-04-03T19:55:45;6.10;99.90
16838;DHT22;19510;54.486;9.046;2023-04-03T19:58:12;6.00;99.90
16838;DHT22;19510;54.486;9.046;2023-04-03T20:00:40;6.00;99.90
16838;DHT22;19510;54.486;9.046;2023-04-03T20:03:06;6.00;99.90
16838;DHT22;19510;54.486;9.046;2023-04-03T20:05:32;6.10;99.90
16838;DHT22;19510;54.486;9.046;2023-04-03T20:07:57;6.00;99.90
16838;DHT22;19510;54.486;9.046;2023-04-03T20:10:24;6.00;99.90
16838;DHT22;19510;54.486;9.046;2023-04-03T20:12:50;6.00;99.90
